Time;durP1;ratioP1;P1;durP2;ratioP2;P2;SDS_P1;SDS_P2;PMS_P1;PMS_P2;Temp;Humidity;BMP_temperature;BMP_pressure;BME280_temperature;BME280_humidity;BME280_pressure;Samples;Min_cycle;Max_cycle;Signal;HPM_P1;HPM_P2
2021/12/20 00:01:46;;;;;;;3.58;2.78;;;6.00;80.40;;;5.12;66.77;94945.28;5052967;28;20188;-84
2021/12/20 00:04:13;;;;;;;2.97;2.58;;;6.00;80.40;;;5.15;66.80;94946.75;5052920;28;20216;-84
2021/12/20 00:06:40;;;;;;;3.70;2.95;;;6.00;80.40;;;5.16;66.93;94943.19;5052003;28;20223;-84
2021/12/20 00:09:08;;;;;;;3.63;2.60;;;6.00;80.40;;;5.18;66.39;94936.06;5036041;28;20270;-85
2021/12/20 00:11:36;;;;;;;3.50;2.50;;;6.00;80.40;;;5.18;66.68;94951.66;5036133;28;20226;-84
2021/12/20 00:14:04;;;;;;;5.47;3.30;;;6.10;80.40;;;5.17;66.73;94944.81;5032280;28;20189;-84
2021/12/20 00:16:32;;;;;;;3.90;2.70;;;6.10;80.40;;;5.16;66.74;94949.19;5034969;28;20235;-84
2021/12/20 00:18:59;;;;;;;3.50;2.70;;;6.10;80.40;;;5.18;66.37;94943.84;5035582;28;20278;-85
2021/12/20 00:21:27;;;;;;;3.75;2.75;;;6.00;80.40;;;5.19;66.86;94942.84;5035885;28;20650;-84
2021/12/20 00:23:54;;;;;;;2.88;2.50;;;6.10;80.40;;;5.15;66.63;94926.78;5052214;28;20199;-84
2021/12/20 00:26:21;;;;;;;3.63;2.75;;;6.10;80.40;;;5.19;66.66;94933.28;5035527;28;20239;-84
2021/12/20 00:28:48;;;;;;;3.92;2.45;;;6.10;80.40;;;5.20;66.58;94939.28;5052007;28;20620;-83
2021/12/20 00:31:15;;;;;;;2.90;2.60;;;6.10;80.40;;;5.17;66.60;94935.22;5035696;28;20673;-84
2021/12/20 00:33:42;;;;;;;4.75;2.65;;;6.10;80.30;;;5.18;66.42;94944.66;5035624;28;20199;-85
2021/12/20 00:36:10;;;;;;;3.63;2.58;;;6.10;80.40;;;5.19;66.16;94945.47;5035154;28;20258;-85
2021/12/20 00:41:24;;;;;;;3.38;2.35;;;6.10;80.40;;;5.14;66.50;94943.34;5085729;28;20199;-85
2021/12/20 00:43:51;;;;;;;4.13;2.63;;;6.10;80.40;;;5.14;66.61;94953.75;5035027;28;20223;-84
2021/12/20 00:46:19;;;;;;;3.47;2.65;;;6.20;80.40;;;5.10;66.50;94958.44;5052268;28;20216;-85
2021/12/20 00:48:46;;;;;;;3.60;2.42;;;6.10;80.30;;;5.05;66.52;94950.28;5051595;28;20192;-85
2021/12/20 00:51:13;;;;;;;3.58;2.65;;;6.00;80.20;;;5.04;66.45;94966.88;5019110;28;20647;-85
2021/12/20 00:53:40;;;;;;;4.00;2.40;;;6.00;80.20;;;4.95;66.81;94957.41;5035866;28;20282;-85
2021/12/20 00:56:07;;;;;;;2.67;2.42;;;6.00;80.30;;;4.91;66.90;94963.91;5035658;28;20240;-84
2021/12/20 00:58:35;;;;;;;3.53;2.63;;;6.00;80.30;;;4.88;67.09;94962.44;5035290;28;20700;-85
2021/12/20 01:01:03;;;;;;;2.83;2.15;;;5.90;80.30;;;4.88;67.11;94972.00;5035505;28;20251;-85
2021/12/20 01:03:30;;;;;;;3.00;2.40;;;5.90;80.40;;;4.85;66.99;94970.50;5034212;28;20665;-85
2021/12/20 01:06:01;;;;;;;2.60;2.30;;;5.80;80.40;;;4.80;67.37;94980.56;5051918;28;20204;-85
2021/12/20 01:08:33;;;;;;;4.32;2.60;;;5.80;80.50;;;4.76;67.48;94980.06;5035598;28;20283;-85
2021/12/20 01:11:01;;;;;;;2.92;2.40;;;5.80;80.60;;;4.79;67.56;94979.72;5036415;28;20247;-84
2021/12/20 01:13:30;;;;;;;4.75;2.80;;;5.70;80.60;;;4.81;67.38;94979.59;5035393;28;20215;-84
2021/12/20 01:16:00;;;;;;;2.85;2.50;;;5.70;80.70;;;4.79;67.40;94971.94;5035571;28;20255;-84
2021/12/20 01:18:28;;;;;;;3.10;2.50;;;5.70;80.80;;;4.83;67.34;94976.84;5035694;28;20211;-84
2021/12/20 01:20:55;;;;;;;2.75;2.28;;;5.70;80.80;;;4.83;67.70;94982.03;5051813;28;20220;-85
2021/12/20 01:23:22;;;;;;;3.33;2.67;;;5.70;80.80;;;4.83;67.72;94975.03;5033915;28;20215;-84
2021/12/20 01:25:49;;;;;;;3.67;2.75;;;5.70;80.90;;;4.86;67.69;94977.34;5034898;28;20250;-84
2021/12/20 01:28:16;;;;;;;2.80;2.50;;;5.70;80.90;;;4.85;67.43;94991.31;5035129;28;20272;-84
2021/12/20 01:30:44;;;;;;;1.95;1.73;;;5.70;80.90;;;4.88;67.80;94990.19;5035184;28;20583;-84
2021/12/20 01:33:13;;;;;;;1.67;1.58;;;5.70;80.90;;;4.79;67.18;94997.13;5034779;28;20199;-85
2021/12/20 01:35:41;;;;;;;1.80;1.30;;;5.70;80.70;;;4.75;66.75;94998.41;5051748;28;20208;-85
2021/12/20 01:38:09;;;;;;;1.80;1.20;;;5.70;80.30;;;4.60;66.13;94991.16;5035239;28;20227;-86
2021/12/20 01:40:37;;;;;;;2.35;1.73;;;5.70;79.90;;;4.42;66.11;94993.81;5035295;28;20218;-86
2021/12/20 01:43:07;;;;;;;4.38;1.95;;;5.60;79.80;;;4.24;66.90;94993.81;5050994;28;20337;-86
2021/12/20 01:45:34;;;;;;;2.67;1.90;;;5.50;79.80;;;4.16;66.62;95002.38;5051453;28;20219;-85
2021/12/20 01:48:10;;;;;;;1.85;1.70;;;5.40;80.00;;;4.12;67.40;95001.03;5035322;28;20250;-85
2021/12/20 01:53:15;;;;;;;2.58;2.03;;;5.20;80.20;;;3.97;67.61;95012.91;5037290;28;20208;-85
2021/12/20 01:55:43;;;;;;;2.50;1.80;;;5.10;80.30;;;3.91;67.61;95021.28;5035303;28;20231;-84
2021/12/20 01:58:10;;;;;;;2.70;1.70;;;5.00;80.40;;;3.83;67.41;95009.88;5032818;28;20610;-85
2021/12/20 02:00:37;;;;;;;3.20;1.90;;;4.90;80.40;;;3.77;67.80;95002.69;5034775;28;20248;-85
2021/12/20 02:03:07;;;;;;;3.38;2.20;;;4.90;80.50;;;3.73;67.80;95013.50;5034508;28;20230;-85
2021/12/20 02:08:22;;;;;;;4.38;2.10;;;4.80;80.70;;;3.63;68.11;95013.56;5056207;28;20279;-83
2021/12/20 02:10:55;;;;;;;3.28;1.83;;;4.70;80.60;;;3.59;68.11;95017.38;5040362;28;20220;-85
2021/12/20 02:13:28;;;;;;;2.65;1.90;;;4.60;80.80;;;3.54;68.24;95010.06;5054679;28;20220;-84
2021/12/20 02:15:58;;;;;;;2.08;1.80;;;4.60;81.00;;;3.51;68.18;95008.56;5038739;28;20223;-84
2021/12/20 02:18:26;;;;;;;2.97;2.00;;;4.60;81.00;;;3.55;68.13;95022.03;5054883;28;20526;-84
2021/12/20 02:20:53;;;;;;;1.95;1.40;;;4.60;81.10;;;3.51;68.50;95015.53;5038369;28;20686;-84
2021/12/20 02:23:20;;;;;;;1.45;1.30;;;4.50;81.20;;;3.46;68.83;95021.16;5053766;28;20206;-84
2021/12/20 02:25:48;;;;;;;1.15;1.15;;;4.50;81.30;;;3.44;68.82;95020.50;5037569;28;20809;-84
2021/12/20 02:28:18;;;;;;;1.50;1.35;;;4.50;81.30;;;3.41;68.66;95025.97;5054567;28;20200;-84
2021/12/20 02:36:53;;;;;;;1.67;1.48;;;4.40;81.20;;;3.43;68.45;95018.84;5037737;28;20219;-85
2021/12/20 02:39:09;;;;;;;1.73;1.60;;;4.40;81.20;;;3.38;68.57;95022.84;5065946;28;20231;-83
2021/12/20 02:41:36;;;;;;;1.80;1.70;;;4.40;81.30;;;3.39;68.58;95030.47;5030078;28;20253;-83
2021/12/20 02:44:06;;;;;;;1.92;1.55;;;4.40;81.40;;;3.40;68.65;95037.28;5051687;28;20215;-83
2021/12/20 02:49:20;;;;;;;5.43;2.28;;;4.40;81.40;;;3.39;68.95;95017.50;5035205;28;20250;-84
2021/12/20 02:51:51;;;;;;;3.10;2.00;;;4.40;81.50;;;3.39;68.94;95016.69;5051653;28;20188;-83
2021/12/20 02:54:22;;;;;;;3.38;2.28;;;4.40;81.50;;;3.39;69.27;95024.47;5063380;28;20251;-84
2021/12/20 02:56:50;;;;;;;6.10;2.22;;;4.40;81.70;;;3.40;69.15;95026.91;5051708;28;20739;-83
2021/12/20 02:59:18;;;;;;;3.30;2.10;;;4.40;81.70;;;3.40;69.66;95028.69;5036788;28;20259;-84
2021/12/20 03:01:49;;;;;;;3.85;2.30;;;4.40;81.80;;;3.41;69.13;95046.69;5052657;28;20196;-83
2021/12/20 03:04:16;;;;;;;3.88;2.30;;;4.40;81.80;;;3.41;69.64;95045.91;5034309;28;20212;-84
2021/12/20 03:07:00;;;;;;;3.47;2.17;;;4.40;81.90;;;3.40;69.00;95036.47;5035943;28;20200;-83
2021/12/20 03:09:35;;;;;;;4.60;2.20;;;4.40;81.80;;;3.40;69.39;95036.47;5019240;28;20689;-83
2021/12/20 03:12:05;;;;;;;4.60;2.40;;;4.40;81.90;;;3.41;69.74;95043.31;5032428;28;20219;-84
2021/12/20 03:14:38;;;;;;;3.22;2.30;;;4.40;81.90;;;3.43;69.58;95055.16;5036296;28;20227;-85
2021/12/20 03:17:06;;;;;;;3.50;2.53;;;4.40;81.90;;;3.41;69.72;95058.84;5037286;28;20223;-83
2021/12/20 03:19:34;;;;;;;3.55;2.40;;;4.40;82.00;;;3.42;69.44;95058.72;5036594;28;20232;-83
2021/12/20 03:22:04;;;;;;;6.32;2.70;;;4.40;82.00;;;3.41;69.62;95045.91;5036725;28;20219;-84
2021/12/20 03:24:33;;;;;;;3.42;2.40;;;4.40;82.00;;;3.44;69.35;95055.97;5036271;28;20689;-83
2021/12/20 03:27:00;;;;;;;4.68;2.28;;;4.40;81.90;;;3.40;69.42;95046.84;5036011;28;20713;-83
2021/12/20 03:29:27;;;;;;;3.80;2.50;;;4.40;81.90;;;3.43;69.15;95056.91;5036307;28;20755;-83
2021/12/20 03:31:54;;;;;;;3.13;2.70;;;4.40;81.90;;;3.39;69.59;95061.56;5035193;28;20195;-83
2021/12/20 03:34:22;;;;;;;5.28;2.63;;;4.40;81.90;;;3.45;69.23;95070.56;5034421;28;20651;-84
2021/12/20 03:36:49;;;;;;;4.32;2.55;;;4.40;81.90;;;3.39;69.26;95056.38;5050951;28;20180;-84
2021/12/20 03:39:17;;;;;;;3.65;2.50;;;4.40;81.90;;;3.45;69.26;95058.41;5034661;28;20236;-84
2021/12/20 03:41:44;;;;;;;3.97;2.67;;;4.40;82.00;;;3.46;69.50;95064.44;5035028;28;20279;-84
2021/12/20 03:44:12;;;;;;;3.88;2.80;;;4.50;82.00;;;3.47;69.37;95061.69;5034423;28;20645;-83
2021/12/20 03:46:39;;;;;;;3.47;2.72;;;4.50;81.90;;;3.44;69.54;95061.97;5050655;28;20199;-82
2021/12/20 03:49:07;;;;;;;5.82;3.03;;;4.50;82.00;;;3.48;69.49;95068.50;5024832;28;20250;-83
2021/12/20 03:51:38;;;;;;;4.10;2.60;;;4.50;81.90;;;3.46;69.55;95067.81;5025067;28;20300;-83
2021/12/20 03:54:05;;;;;;;4.78;2.90;;;4.50;81.90;;;3.44;69.24;95074.94;5026288;28;20196;-84
2021/12/20 03:56:33;;;;;;;5.40;3.17;;;4.50;81.90;;;3.43;69.43;95083.69;5034700;28;20688;-84
2021/12/20 03:59:01;;;;;;;5.90;3.17;;;4.50;81.90;;;3.42;69.29;95079.44;5051241;28;20212;-84
2021/12/20 04:01:29;;;;;;;6.68;3.30;;;4.40;81.90;;;3.39;69.25;95079.72;5035072;28;20192;-83
2021/12/20 04:04:00;;;;;;;5.38;3.17;;;4.40;81.80;;;3.24;69.22;95063.84;5049639;28;20202;-84
2021/12/20 04:06:28;;;;;;;3.30;3.00;;;4.40;81.70;;;3.29;69.14;95071.19;5035147;28;20196;-85
2021/12/20 04:08:55;;;;;;;5.68;3.65;;;4.40;81.60;;;3.20;69.22;95078.84;5032272;28;20220;-84
2021/12/20 04:11:23;;;;;;;7.32;3.50;;;4.30;81.50;;;3.11;69.43;95071.91;5031974;28;20228;-83
2021/12/20 04:13:50;;;;;;;8.20;3.80;;;4.30;81.60;;;3.09;69.69;95094.59;5033405;28;20291;-84
2021/12/20 04:16:18;;;;;;;4.03;3.40;;;4.20;81.60;;;3.07;69.75;95093.91;5032954;28;20199;-84
2021/12/20 04:18:45;;;;;;;4.72;3.50;;;4.20;81.60;;;3.02;69.26;95086.53;5033173;28;20212;-84
2021/12/20 04:21:14;;;;;;;5.68;3.53;;;4.20;81.60;;;2.97;69.58;95086.16;5066195;28;20248;-83
2021/12/20 04:23:42;;;;;;;7.40;3.80;;;4.10;81.60;;;2.94;69.68;95078.66;5049368;28;20219;-84
2021/12/20 04:26:09;;;;;;;7.68;3.60;;;4.10;81.60;;;2.87;69.81;95090.56;5033112;28;20224;-84
2021/12/20 04:28:37;;;;;;;9.85;3.45;;;4.00;81.60;;;2.84;69.53;95101.97;5050892;28;20192;-82
2021/12/20 04:31:04;;;;;;;5.05;3.38;;;4.00;81.50;;;2.80;69.41;95099.84;5051606;28;20246;-84
2021/12/20 04:33:31;;;;;;;6.97;3.55;;;3.90;81.40;;;2.75;69.23;95105.41;5034237;28;20215;-84
2021/12/20 04:35:58;;;;;;;7.72;3.40;;;3.90;81.30;;;2.70;69.38;95120.56;5016111;28;20224;-84
2021/12/20 04:38:29;;;;;;;4.35;3.13;;;3.90;81.40;;;2.68;68.95;95118.09;5034021;28;20303;-85
2021/12/20 04:40:56;;;;;;;6.30;3.30;;;3.80;81.30;;;2.63;69.11;95115.09;5050271;28;20312;-84
2021/12/20 04:43:23;;;;;;;9.18;3.85;;;3.80;81.30;;;2.60;69.53;95115.41;5033811;28;20246;-85
2021/12/20 04:45:51;;;;;;;6.55;3.20;;;3.70;81.30;;;2.59;69.10;95115.50;5033848;28;20248;-85
2021/12/20 04:48:18;;;;;;;4.72;3.20;;;3.80;81.40;;;2.51;69.15;95116.22;5033876;28;20297;-85
2021/12/20 04:50:46;;;;;;;5.65;3.30;;;3.70;81.40;;;2.52;69.64;95121.25;5016714;28;20589;-85
2021/12/20 04:53:13;;;;;;;8.15;3.75;;;3.70;81.60;;;2.50;69.26;95114.56;5032413;28;20475;-85
2021/12/20 04:55:40;;;;;;;7.82;3.85;;;3.70;81.60;;;2.43;69.26;95106.53;5050338;28;20208;-85
2021/12/20 04:58:08;;;;;;;8.35;3.65;;;3.60;81.40;;;2.41;69.53;95113.63;5034856;28;20219;-85
2021/12/20 05:00:40;;;;;;;8.23;3.72;;;3.60;81.60;;;2.38;69.65;95109.53;5018304;28;20212;-85
2021/12/20 05:03:08;;;;;;;6.80;3.45;;;3.60;81.70;;;2.46;69.87;95136.53;5034986;28;20250;-85
2021/12/20 05:05:35;;;;;;;7.88;4.00;;;3.60;81.90;;;2.48;69.76;95137.19;5035393;28;20234;-85
2021/12/20 05:08:04;;;;;;;6.93;3.97;;;3.50;82.00;;;2.52;69.99;95141.94;5019245;28;20207;-85
2021/12/20 05:10:34;;;;;;;8.30;3.90;;;3.60;82.10;;;2.54;70.03;95139.25;5035532;28;20322;-86
2021/12/20 05:13:08;;;;;;;8.27;3.92;;;3.60;82.20;;;2.56;70.30;95140.75;5034964;28;20199;-86
2021/12/20 05:15:38;;;;;;;5.60;3.70;;;3.60;82.30;;;2.57;70.07;95146.72;5035198;28;20265;-85
2021/12/20 05:18:08;;;;;;;8.57;4.13;;;3.60;82.20;;;2.54;69.94;95147.81;5035635;28;20199;-85
2021/12/20 05:20:36;;;;;;;5.13;4.10;;;3.60;82.00;;;2.51;69.67;95152.47;5051746;28;20227;-84
2021/12/20 05:23:04;;;;;;;7.10;3.40;;;3.60;81.90;;;2.50;69.50;95153.41;5035772;28;20224;-85
2021/12/20 05:25:31;;;;;;;7.13;3.40;;;3.60;81.80;;;2.48;69.38;95155.31;5055707;28;20218;-84
2021/12/20 05:28:00;;;;;;;6.18;3.53;;;3.60;81.60;;;2.42;69.16;95143.72;5039423;28;20223;-85
2021/12/20 05:30:27;;;;;;;8.95;3.80;;;3.60;81.40;;;2.40;69.10;95156.00;5035322;28;20270;-84
2021/12/20 05:32:55;;;;;;;5.00;3.63;;;3.60;81.40;;;2.35;69.37;95160.75;5035919;28;20201;-85
2021/12/20 05:35:23;;;;;;;6.63;3.38;;;3.60;81.40;;;2.33;69.30;95168.66;5040497;28;20578;-85
2021/12/20 05:37:50;;;;;;;7.20;3.53;;;3.50;81.40;;;2.32;69.33;95176.53;5038285;28;20200;-86
2021/12/20 05:40:18;;;;;;;6.45;3.53;;;3.50;81.40;;;2.27;69.13;95176.13;5036622;28;20223;-84
2021/12/20 05:42:45;;;;;;;7.97;4.00;;;3.50;81.30;;;2.22;69.18;95187.72;5034213;28;20571;-87
2021/12/20 05:45:13;;;;;;;7.93;4.57;;;3.40;81.20;;;2.21;69.24;95193.00;5017662;28;20298;-86
2021/12/20 05:47:41;;;;;;;4.65;3.70;;;3.40;81.20;;;2.18;69.33;95191.50;5001937;28;20196;-85
2021/12/20 05:50:11;;;;;;;6.55;4.00;;;3.40;81.20;;;2.12;69.25;95179.09;5027563;28;20212;-87
2021/12/20 05:52:38;;;;;;;5.05;3.53;;;3.40;81.10;;;2.11;69.19;95180.03;5038615;28;20557;-86
2021/12/20 05:55:08;;;;;;;6.40;4.25;;;3.30;81.10;;;2.04;69.21;95184.94;5055189;28;20707;-86
2021/12/20 05:57:36;;;;;;;6.63;3.75;;;3.30;81.20;;;2.01;69.21;95179.22;5022681;28;20196;-86
2021/12/20 06:00:12;;;;;;;6.18;3.60;;;3.30;81.20;;;2.01;69.27;95187.78;5036610;28;20834;-86
2021/12/20 06:02:46;;;;;;;5.18;3.22;;;3.20;81.20;;;1.96;68.80;95189.94;5038834;28;20199;-86
2021/12/20 06:05:13;;;;;;;6.53;3.63;;;3.20;81.20;;;1.91;69.19;95184.38;5038113;28;20220;-86
2021/12/20 06:07:42;;;;;;;5.10;3.38;;;3.20;81.30;;;1.88;68.95;95189.78;5038113;28;20219;-85
2021/12/20 06:10:18;;;;;;;7.15;3.40;;;3.10;81.10;;;1.84;68.74;95191.00;5038508;28;20224;-86
2021/12/20 06:12:46;;;;;;;5.97;2.92;;;3.10;81.10;;;1.79;69.08;95198.34;5038744;28;20262;-86
2021/12/20 06:15:13;;;;;;;6.80;3.05;;;3.10;81.00;;;1.72;69.11;95190.28;5038434;28;20286;-86
2021/12/20 06:17:41;;;;;;;6.68;3.08;;;3.00;80.80;;;1.72;68.73;95200.63;5038532;28;20218;-87
2021/12/20 06:20:12;;;;;;;4.30;2.60;;;3.00;80.80;;;1.60;68.79;95186.97;5034239;28;20224;-87
2021/12/20 06:22:39;;;;;;;4.68;3.05;;;2.90;80.70;;;1.59;68.80;95206.03;5036653;28;20275;-86
2021/12/20 06:25:07;;;;;;;6.32;2.90;;;2.90;80.70;;;1.59;69.17;95216.38;5036118;28;20223;-86
2021/12/20 06:27:35;;;;;;;8.05;2.75;;;2.90;80.80;;;1.50;69.00;95205.03;5016108;28;20220;-86
2021/12/20 06:30:04;;;;;;;3.80;2.53;;;2.90;80.80;;;1.52;68.86;95223.81;5037309;28;20216;-86
2021/12/20 06:32:32;;;;;;;7.95;2.70;;;2.80;80.70;;;1.49;69.08;95223.25;5050976;28;20208;-86
2021/12/20 06:34:59;;;;;;;6.43;2.90;;;2.70;80.80;;;1.46;68.81;95216.56;5034446;28;20226;-86
2021/12/20 06:37:26;;;;;;;4.72;2.58;;;2.80;80.90;;;1.42;69.04;95226.34;5035663;28;20614;-87
2021/12/20 06:39:53;;;;;;;5.78;2.83;;;2.70;80.90;;;1.46;69.15;95218.34;5037169;28;20282;-86
2021/12/20 06:42:20;;;;;;;4.95;2.88;;;2.70;80.90;;;1.42;69.43;95228.13;5036709;28;20212;-86
2021/12/20 06:44:47;;;;;;;6.85;3.00;;;2.70;80.90;;;1.41;68.91;95239.38;5035023;28;20243;-86
2021/12/20 06:47:16;;;;;;;6.50;2.92;;;2.70;80.90;;;1.39;68.99;95247.28;5035924;28;20228;-85
2021/12/20 06:49:44;;;;;;;4.53;2.55;;;2.60;80.80;;;1.34;68.80;95239.06;5020168;28;20215;-85
2021/12/20 06:52:11;;;;;;;7.10;3.45;;;2.60;80.70;;;1.32;68.98;95237.56;5037398;28;20229;-85
2021/12/20 06:54:40;;;;;;;6.85;2.33;;;2.60;80.80;;;1.30;69.07;95248.03;5036364;28;20745;-86
2021/12/20 06:57:07;;;;;;;5.82;2.60;;;2.60;80.80;;;1.29;69.13;95256.72;5036857;28;20272;-86
2021/12/20 06:59:34;;;;;;;3.75;2.42;;;2.50;80.90;;;1.28;69.32;95255.06;5069920;28;20232;-86
2021/12/20 07:02:01;;;;;;;4.35;2.40;;;2.50;80.90;;;1.28;69.21;95245.56;5036566;28;20227;-86
2021/12/20 07:04:28;;;;;;;5.18;2.70;;;2.50;81.00;;;1.23;69.28;95239.97;5020794;28;20281;-87
2021/12/20 07:06:56;;;;;;;5.07;2.38;;;2.50;81.10;;;1.26;69.62;95250.03;5035678;28;20753;-85
2021/12/20 07:09:23;;;;;;;3.95;2.33;;;2.50;81.20;;;1.30;69.39;95249.81;5052885;28;20293;-86
2021/12/20 07:11:51;;;;;;;4.90;2.72;;;2.50;81.20;;;1.31;69.12;95254.84;5020547;28;20654;-86
2021/12/20 07:14:19;;;;;;;4.43;2.60;;;2.50;81.20;;;1.25;69.12;95238.06;5069878;28;20234;-85
2021/12/20 07:16:46;;;;;;;6.88;2.95;;;2.50;81.10;;;1.33;69.06;95246.94;5053617;28;20188;-86
2021/12/20 07:19:13;;;;;;;6.63;2.85;;;2.50;81.10;;;1.31;69.26;95247.09;5036645;28;20239;-87
2021/12/20 07:21:40;;;;;;;7.55;3.38;;;2.50;81.10;;;1.31;68.90;95270.34;5020825;28;20200;-86
2021/12/20 07:24:07;;;;;;;4.82;3.17;;;2.50;81.30;;;1.33;69.13;95257.28;5053581;28;20235;-87
2021/12/20 07:26:35;;;;;;;8.60;3.55;;;2.50;81.20;;;1.34;69.25;95256.34;5053766;28;20232;-86
2021/12/20 07:29:03;;;;;;;6.80;2.90;;;2.50;81.30;;;1.36;69.12;95247.53;5037033;28;20196;-87
2021/12/20 07:31:31;;;;;;;5.93;2.80;;;2.50;81.20;;;1.36;68.92;95251.88;5053981;28;20588;-86
2021/12/20 07:33:58;;;;;;;4.22;2.70;;;2.50;81.20;;;1.38;68.85;95261.16;5037363;28;20268;-86
2021/12/20 07:36:26;;;;;;;8.13;3.00;;;2.50;81.00;;;1.35;68.65;95269.13;5070479;28;20203;-87
2021/12/20 07:38:53;;;;;;;4.57;2.75;;;2.50;81.00;;;1.37;68.52;95262.09;5053348;28;20219;-86
2021/12/20 07:41:22;;;;;;;7.57;2.72;;;2.50;81.00;;;1.40;68.27;95266.19;5044420;28;20207;-86
2021/12/20 07:43:50;;;;;;;5.53;2.40;;;2.50;81.00;;;1.40;68.81;95276.50;5054300;28;20212;-86
2021/12/20 07:46:19;;;;;;;8.18;2.55;;;2.50;81.10;;;1.46;69.01;95286.34;5016821;28;20200;-86
2021/12/20 07:48:47;;;;;;;4.47;2.30;;;2.50;81.30;;;1.45;69.19;95274.38;5017023;28;20207;-86
2021/12/20 07:51:14;;;;;;;5.35;2.60;;;2.50;81.40;;;1.54;69.29;95280.56;5016974;28;20231;-87
2021/12/20 07:53:42;;;;;;;7.13;2.55;;;2.60;81.50;;;1.58;69.02;95272.41;5050525;28;20285;-87
2021/12/20 07:56:10;;;;;;;4.57;2.30;;;2.60;81.50;;;1.69;68.75;95281.84;5049835;28;20243;-87
2021/12/20 07:58:37;;;;;;;4.75;2.40;;;2.70;81.50;;;1.73;68.97;95279.84;5036453;28;20193;-87
2021/12/20 08:01:04;;;;;;;5.38;2.28;;;2.70;81.50;;;1.77;68.51;95278.66;5069700;28;20219;-87
2021/12/20 08:03:34;;;;;;;5.60;2.60;;;2.80;81.40;;;1.80;68.42;95285.34;5032184;28;20193;-86
2021/12/20 08:06:02;;;;;;;7.22;2.40;;;2.80;81.20;;;1.75;68.33;95290.88;5045393;28;20314;-87
2021/12/20 08:08:30;;;;;;;6.65;3.05;;;2.80;81.00;;;1.73;68.22;95296.19;5025536;28;20207;-86
2021/12/20 08:10:57;;;;;;;3.65;2.25;;;2.80;80.90;;;1.71;68.27;95290.31;5058688;28;20239;-86
2021/12/20 08:13:24;;;;;;;5.68;2.70;;;2.80;80.80;;;1.66;68.31;95282.13;5055797;28;20737;-86
2021/12/20 08:15:53;;;;;;;5.90;2.60;;;2.80;80.80;;;1.70;68.18;95278.31;5040802;28;20273;-86
2021/12/20 08:18:21;;;;;;;5.43;2.42;;;2.80;80.90;;;1.66;68.49;95283.88;5026166;28;20283;-86
2021/12/20 08:20:48;;;;;;;4.53;2.80;;;2.80;81.00;;;1.73;68.61;95290.19;5060283;28;20215;-86
2021/12/20 08:23:15;;;;;;;6.18;2.50;;;2.80;81.00;;;1.75;68.37;95291.69;5031830;28;20204;-85
2021/12/20 08:25:43;;;;;;;4.07;2.38;;;2.80;81.00;;;1.78;68.29;95295.78;5018287;28;20238;-85
2021/12/20 08:28:10;;;;;;;5.80;2.42;;;2.80;81.00;;;1.78;68.17;95288.03;5043959;28;20188;-86
2021/12/20 08:30:38;;;;;;;5.80;2.75;;;2.80;81.00;;;1.81;68.30;95292.97;5046865;28;20701;-85
2021/12/20 08:33:06;;;;;;;4.40;2.35;;;2.80;81.00;;;1.81;68.42;95300.72;5032103;28;20260;-85
2021/12/20 08:35:34;;;;;;;5.88;2.45;;;2.90;81.10;;;1.84;68.25;95307.41;5052446;28;20243;-88
2021/12/20 08:38:01;;;;;;;4.00;2.63;;;2.90;80.90;;;1.86;67.94;95287.41;5035869;28;20196;-86
2021/12/20 08:40:29;;;;;;;5.90;2.42;;;2.80;80.90;;;1.85;68.37;95278.00;5052791;28;20243;-86
2021/12/20 08:42:56;;;;;;;9.82;2.70;;;2.90;81.00;;;1.88;67.75;95290.66;5036401;28;20251;-87
2021/12/20 08:45:23;;;;;;;7.05;2.70;;;2.90;80.90;;;1.86;67.84;95293.38;5035979;28;20243;-87
2021/12/20 08:47:52;;;;;;;8.02;2.95;;;2.90;80.80;;;1.89;67.77;95303.50;5036248;28;20287;-87
2021/12/20 08:50:21;;;;;;;6.75;2.78;;;2.90;80.50;;;1.92;67.86;95297.22;5035973;28;20318;-86
2021/12/20 08:52:49;;;;;;;8.63;2.60;;;2.90;80.70;;;1.94;67.51;95307.44;5052134;28;20199;-88
2021/12/20 08:55:16;;;;;;;4.68;2.40;;;2.90;80.80;;;1.95;67.58;95302.13;5043668;28;20220;-87
2021/12/20 08:57:44;;;;;;;4.93;2.70;;;2.90;80.70;;;2.00;67.35;95320.69;5032348;28;20196;-87
2021/12/20 09:00:22;;;;;;;6.32;2.65;;;2.90;80.70;;;2.00;67.62;95310.34;5045824;28;20255;-87
2021/12/20 09:02:51;;;;;;;6.50;2.50;;;3.00;80.70;;;2.02;67.34;95321.38;5042091;28;20540;-87
2021/12/20 09:05:20;;;;;;;6.43;2.85;;;3.00;80.60;;;2.04;67.37;95314.31;5039800;28;20217;-85
2021/12/20 09:07:47;;;;;;;5.65;2.65;;;3.00;80.60;;;2.04;67.30;95303.16;5018291;28;20200;-87
2021/12/20 09:10:15;;;;;;;7.35;2.65;;;3.00;80.60;;;2.14;67.47;95313.53;5032275;28;20299;-87
2021/12/20 09:12:44;;;;;;;8.15;2.45;;;3.10;80.70;;;2.19;67.18;95313.97;5018391;28;20197;-87
2021/12/20 09:15:17;;;;;;;5.45;2.55;;;3.10;80.70;;;2.24;67.22;95315.19;5043983;28;20211;-87
2021/12/20 09:17:52;;;;;;;5.25;2.78;;;3.10;80.60;;;2.27;67.23;95316.72;5052449;28;20214;-87
2021/12/20 09:20:23;;;;;;;5.30;2.80;;;3.10;80.70;;;2.31;67.02;95318.09;5051310;28;20733;-87
2021/12/20 09:22:57;;;;;;;4.10;2.63;;;3.30;80.60;;;2.34;66.67;95322.19;5034138;28;20212;-87
2021/12/20 09:25:27;;;;;;;7.47;2.80;;;3.20;80.30;;;2.34;66.23;95327.38;5035784;28;20241;-86
2021/12/20 09:27:57;;;;;;;4.07;2.50;;;3.20;80.20;;;2.34;66.57;95329.97;5035397;28;20207;-86
2021/12/20 09:30:27;;;;;;;4.80;2.33;;;3.30;80.10;;;2.32;66.18;95331.84;5034662;28;20212;-86
2021/12/20 09:33:00;;;;;;;5.85;2.65;;;3.30;79.90;;;2.35;65.83;95334.19;5036072;28;20286;-86
2021/12/20 09:35:28;;;;;;;4.07;2.58;;;3.30;80.10;;;2.38;66.03;95333.91;5019114;28;20216;-86
2021/12/20 09:37:55;;;;;;;4.95;2.67;;;3.30;79.80;;;2.38;65.87;95329.56;5019184;28;20728;-87
2021/12/20 09:40:37;;;;;;;5.82;2.40;;;3.30;79.80;;;2.43;66.02;95326.59;5035005;28;20254;-86
2021/12/20 09:43:12;;;;;;;5.10;2.65;;;3.30;79.80;;;2.48;65.86;95327.00;5037076;28;20207;-87
2021/12/20 09:45:43;;;;;;;6.57;2.90;;;3.30;79.30;;;2.57;65.81;95325.41;5052016;28;20218;-86
2021/12/20 09:48:11;;;;;;;3.38;2.33;;;3.40;80.00;;;2.70;66.47;95327.75;5035295;28;20200;-86
2021/12/20 09:50:39;;;;;;;6.75;2.85;;;3.40;80.30;;;2.86;66.13;95335.03;5035331;28;20212;-86
2021/12/20 09:53:07;;;;;;;6.53;3.30;;;3.50;80.40;;;2.97;66.11;95334.09;5032234;28;20193;-85
2021/12/20 09:55:35;;;;;;;5.75;2.65;;;3.60;80.50;;;3.07;65.89;95328.91;5025087;28;20215;-84
2021/12/20 09:58:05;;;;;;;6.05;3.15;;;3.70;80.40;;;3.13;65.75;95316.22;5042444;28;20254;-86
2021/12/20 10:00:33;;;;;;;6.95;3.25;;;3.70;80.20;;;3.15;65.48;95327.28;5031595;28;20303;-83
2021/12/20 10:03:02;;;;;;;8.07;3.38;;;3.80;80.10;;;3.19;64.84;95325.22;5042198;28;20318;-85
2021/12/20 10:05:30;;;;;;;7.47;2.83;;;3.90;80.00;;;3.20;65.27;95327.69;5024949;28;20221;-84
2021/12/20 10:07:58;;;;;;;4.75;2.65;;;3.90;79.80;;;3.19;65.56;95320.84;5023805;28;20200;-84
2021/12/20 10:10:46;;;;;;;7.60;3.25;;;4.00;80.00;;;3.18;65.29;95332.16;5027500;28;20210;-85
2021/12/20 10:13:25;;;;;;;5.13;3.10;;;4.00;79.50;;;3.23;65.20;95326.59;5045514;28;20291;-84
2021/12/20 10:15:56;;;;;;;7.07;2.70;;;4.10;79.20;;;3.24;65.32;95333.41;5012867;28;20242;-83
2021/12/20 10:18:26;;;;;;;7.00;3.20;;;4.10;79.40;;;3.27;65.64;95342.69;5045365;28;20658;-85
2021/12/20 10:20:59;;;;;;;5.03;2.78;;;4.10;79.70;;;3.31;65.56;95344.88;5028485;28;20228;-85
2021/12/20 10:23:33;;;;;;;4.00;2.95;;;4.20;79.60;;;3.33;65.33;95334.38;5028851;28;20200;-84
2021/12/20 10:26:19;;;;;;;6.22;3.00;;;4.20;79.60;;;3.35;65.70;95329.88;5028816;28;20896;-84
2021/12/20 10:28:53;;;;;;;4.70;2.97;;;4.20;79.50;;;3.38;65.61;95333.97;5044952;28;20539;-85
2021/12/20 10:31:23;;;;;;;5.55;3.03;;;4.20;79.30;;;3.36;65.46;95336.69;5049295;28;20461;-86
2021/12/20 10:33:55;;;;;;;4.68;3.20;;;4.30;79.40;;;3.35;65.53;95332.47;5052829;28;20270;-85
2021/12/20 10:36:24;;;;;;;5.28;2.75;;;4.30;79.20;;;3.32;65.53;95336.16;5053112;28;20247;-84
2021/12/20 10:38:59;;;;;;;4.40;2.75;;;4.30;79.40;;;3.34;65.68;95328.22;5037302;28;20195;-84
2021/12/20 10:41:34;;;;;;;5.15;2.90;;;4.30;79.40;;;3.38;66.08;95337.38;5037260;28;20651;-85
2021/12/20 10:44:16;;;;;;;5.55;2.92;;;4.30;79.50;;;3.36;65.65;95327.13;5048028;28;20250;-82
2021/12/20 10:46:53;;;;;;;4.55;2.90;;;4.30;79.40;;;3.42;65.70;95332.72;5045436;28;20199;-82
2021/12/20 10:49:30;;;;;;;4.88;2.85;;;4.30;79.30;;;3.43;65.48;95342.16;5028759;28;20222;-82
2021/12/20 10:51:59;;;;;;;7.65;3.10;;;4.30;79.40;;;3.38;65.88;95321.81;5045897;28;20242;-82
2021/12/20 10:54:31;;;;;;;6.43;2.97;;;4.30;79.50;;;3.39;65.44;95326.03;5044006;28;20204;-82
2021/12/20 10:57:05;;;;;;;4.93;2.85;;;4.40;79.30;;;3.33;65.32;95339.56;5060791;28;20188;-82